Chamboeuf (21) - E

Date : 22/08/2013
Distance : 2,800 km

Place Nom Licence Catégorie Club Temps min/km CN à J-60 Points Différence Nouveau CN
1 MORLON Marie 2100 D45 5702LO 0:26:00 9'17 5940 5489 -451 5904
2 STARKE Paula 26505 D18 6913RA 0:28:48 10'17 4562 4955 +393 4976
3 VILLAR Isabelle 14216 D45 6701AL 0:30:25 10'51 4445 4692 +247 4409
4 RIVOLLIER Isaline 22451 D18 4201RA 0:30:57 11'03 4200 4611 +411 4304
5 BONORA Marine 11542 D18 6906RA 0:33:10 11'50 3817 4303 +486 4203
6 VIOLLOT Ariane 16532 D40 2109BO 0:33:46 12'03 0 4226 3358
7 ERBLAND Christine 23153 D40 9105IF 0:33:50 12'05 4894 4218 -676 4897
8 BESTEL Florence 17309 D40 9105IF 0:34:07 12'11 4023 4183 +160 4079
9 GONET Janick 21046 D40 2607RA 0:34:07 12'11 3994 4183 +189 4167
10 ALAFORT Lucie 22475 D18 5116CA 0:34:20 12'15 4260 4157 -103 4460
11 VALCHERA Claire 8648 D45 3810RA 0:35:05 12'31 4200 4068 -132 4603
12 DAVID Céline 26993 D45 9006FC 0:35:08 12'32 4454 4062 -392 4454
13 POURRE Valerie 738 D45 2508FC 0:35:43 12'45 4268 3996 -272 4268
14 PASSELERGUE Marianne 19215 D40 7808IF 0:36:08 12'54 4025 3950 -75 3984
15 COUTANCE Marion 26100 D18 1403NM 0:36:24 13'00 2484 3921 +1437 3669
16 LEMERCIER Celine 10527 D40 5703LO 0:36:58 13'12 3993 3861 -132 4058
17 GREBEL Laurence-Marie 6064 D40 7305RA 0:37:34 13'25 5093 3799 -1294 4998
18 LE CAM Miti 27711 D18 3502BR 0:38:15 13'39 2861 3731 +870 4109
19 BERRARD Marianne 18130 D45 2607RA 0:38:24 13'42 3724 3716 -8 3784
20 MAES Karine 5989 D45 5604BR 0:38:48 13'51 0 3678 3837
21 BELDJILALI Stephanie 14568 D40 9801OM 0:38:57 13'54 3664 3641
22 BONORA Beatrice 243 D45 6906RA 0:39:08 13'58 4111 3647 -464 4214
23 BEAUVIR Laurence 8536 D40 3502BR 0:39:22 14'03 2842 3625 +783 3178
24 VIDEIRA Christelle 24886 D40 3914FC 0:39:28 14'05 3035 3616 +581 3229
25 DUDOIGNON Jocelyne 17952 D45 2604RA 0:39:29 14'06 3931 3615 -316 3715
26 BLANC JOUVAN Florence 12007 D45 3810RA 0:39:33 14'07 3066 3608 +542 3436
27 LAVAL Corine 22371 D40 8106MP 0:39:33 14'07 3806 3608 -198 3765
28 CALANDRY Lucia 9352 D45 7404RA 0:39:46 14'12 3008 3589 +581 2790
29 DOUSSET Corinne 20729 D45 4709AQ 0:39:57 14'16 3764 3572 -192 3772
30 ROCHE Sandrine 10684 D40 6911RA 0:40:56 14'37 3764 3486 -278 3793
31 CHAILLAN Caroline 20381 D45 0404PR 0:41:18 14'45 4143 3456 -687 4149
32 LAVILLE Mireille 18411 D45 1307PR 0:41:39 14'52 3760 3426 -334 3762
33 ELIAS Laurence 19335 D45 1307PR 0:41:48 14'55 2997 3414 +417 3168
34 VAN TORHOUDT Adèle 26885 D18 1403NM 0:41:54 14'57 0 3406 2770
35 DEMESSANCE Annaik 25595 D18 6008PI 0:42:40 15'14 3824 3345 -479 3751
36 LE VERGE Helene 15367 D40 2904BR 0:42:49 15'17 2901 3333 +432 3564
37 EMPTAZ Nathalie 12953 D40 7109BO 0:42:55 15'19 0 3325 2362
38 ANDRE Isabelle 25211 D40 4010AQ 0:42:55 15'19 3912 3325 -587 3912
39 RAUTURIER Nathalie 3200 D45 7807IF 0:43:31 15'32 3643 3280 -363 3657
40 TREMOULET Carole 13824 D40 4601MP 0:43:53 15'40 4055 3252 -803 3874
41 GLAUDIN Clémentine 25899 D18 1403NM 0:43:53 15'40 0 3252 2502
42 GONNEAUD Perrine 11385 D18 7109BO 0:43:59 15'42 3537 3245 -292 3665
43 CREUSAT Fanny 25989 D40 8809LO 0:44:16 15'48 3914 3224 -690 3961
44 BEGUINOT Claire 13961 D18 5702LO 0:44:24 15'51 3359 3214 -145 3744
45 GUENIN Nathalie 16950 D40 5116CA 0:44:27 15'52 4103 3211 -892 4109
46 VARRON Isabelle 14003 D45 7717IF 0:45:34 16'16 2605 3132 +527 3082
47 CONIEL Anne 14884 D40 5604BR 0:46:21 16'33 3522 3079 -443 3575
48 VERNOTTE Louise 23552 D18 1905LI 0:46:26 16'35 3839 3074 -765 4048
49 ANGLADE Françoise 22255 D45 5604BR 0:46:26 16'35 3454 3074 -380 3464
50 CAVELIUS Sandrine 6495 D45 6906RA 0:46:54 16'45 2260 3043 +783 3109
51 DELENNE A-Francoise 11495 D45 1307PR 0:46:58 16'46 3837 3039 -798 3805
52 SAMSON Caroline 23657 D45 8607PC 0:47:39 17'01 0 2995 2948
53 ELTZER Marie 26848 D18 6804AL 0:47:48 17'04 2920 2986 +66 3550
54 RAVENEL Veronique 10902 D45 6804AL 0:47:51 17'05 3330 2983 -347 3229
55 LEVREUX Nathalie 14946 D45 7807IF 0:49:16 17'35 3751 2897 -854 3820
56 GENNARO Beatrice 20862 D40 3811RA 0:49:58 17'50 3093 2856 -237 3316
57 HERVE-JOUSSE Odile 13784 D45 9109IF 0:50:18 17'57 3368 2837 -531 3446
58 BONNEFON Christelle 25976 D45 3318AQ 0:50:25 18'00 3199 2831 -368 3329
59 LOGE Sophie 12767 D45 5703LO 0:51:41 18'27 2831 2761 -70 2973
60 PARRENT Sophie 22254 D45 2104BO 0:51:53 18'31 0 2751 2442
61 CHABANCE Anne 20752 D45 4201RA 0:52:21 18'41 3233 2726 -507 3444
62 GUETAZ Laure 13150 D45 3810RA 0:52:25 18'43 3200 2723 -477 3347
63 CLOUARD Florence 8549 D45 7807IF 0:52:39 18'48 3708 2711 -997 3656
64 MEYER Catherine 20483 D45 6806AL 0:52:41 18'48 3015 2709 -306 3015
65 BROUILLET Frédérique 19875 D45 1705PC 0:53:07 18'58 2824 2687 -137 2821
66 VALETTE Isabelle 2270 D40 6913RA 0:53:17 19'01 2876 2678 -198 2958
67 ROBBERECHT Francoise 14591 D45 5907NO 0:54:10 19'20 3061 2635 -426 3120
68 MERIGUET Valérie 16687 D45 7807IF 0:54:50 19'35 3059 2603 -456 3037
69 ROBBE Solène 24338 D45 9105IF 0:54:51 19'35 2674 2602 -72 2674
70 COLIN Marie-Noël 22020 D45 1311PR 0:55:19 19'45 2659 2580 -79 2908
71 TEGNY Laurine 23659 D18 6205NO 0:56:38 20'13 2938 2520 -418 2938
72 REYDANT Juliette 19882 D18 2704NM 0:57:11 20'25 1978 2496 +518 2489
73 CHICHERY Séverine 26114 D35 8106MP 0:57:12 20'25 1538 2495 +957 2364
74 GONNEAUD Agnès 11384 D40 7109BO 0:59:10 21'07 0 2412 2598
75 MARCUZZI Cécile 28161 D20 6008PI 0:59:30 21'15 2399 2278
76 AMROUCHE Sandrine 22654 D40 0615AZ 0:59:57 21'24 3110 2381 -729 3110
77 CHAMPIGNY Laurence 25032 D45 8311AZ 1:01:24 21'55 2270 2324 +54 2315
78 XIMENEZ Nadege 21359 D45 3801RA 1:01:29 21'57 2680 2321 -359 2285
79 INDEAUX Catherine 10394 D40 6913RA 1:02:04 22'10 2676 2299 -377 2721
80 PIERRE Emmanuelle 27537 D40 2508FC 1:03:29 22'40 1777 2248 +471 1828
81 GUELENNOC Christine 17592 D45 2906BR 1:04:17 22'57 2707 2220 -487 2716
82 CHESNEL Mélanie 27861 D18 1403NM 1:04:19 22'58 0 2219 2203
83 CHARDOT Ulrike 22314 D45 7807IF 1:04:35 23'03 2796 2210 -586 2820
84 MONESTES Nathalie 24036 D45 4709AQ 1:04:58 23'12 2943 2197 -746 2943
85 SERRE Francine 3429 D45 5907NO 1:11:23 25'29 2288 1999 -289 2335
86 TROCCAZ Anne 27741 D40 3502BR 1:25:36 30'34 0 1667 1771
87 QUENAULT Sophie 24051 D45 5803BO 1:32:55 33'11 1536 1475
88 ELIAS Maria 24546 D40 3319AQ 1:36:00 34'17 2536 1487 -1049 2558
89 GIRARD Florence 22478 D45 2508FC 1:36:32 34'28 2326 1478 -848 2326
90 ROUBOT Nathalie 25183 D40 2109BO 1:52:50 40'17 0 1265 1240
CRETE Angélique 18827 D40 6008PI pm None 4389 0 4389
BEAUVISAGE Fabienne 13740 D45 7807IF pm None 2696 0 2544
WU Christine 22945 D40 7808IF pm None 2728 0 2850
GUINOT Laurence 20804 D45 3914FC pm None 1944 0 1985